createdAt,value
2018-02-17T00:00:22.377Z,1020.33
2018-02-17T00:01:22.340Z,1020.30
2018-02-17T00:02:22.318Z,1020.31
2018-02-17T00:03:22.250Z,1020.24
2018-02-17T00:04:22.193Z,1020.24
2018-02-17T00:05:22.174Z,1020.22
2018-02-17T00:06:22.108Z,1020.23
2018-02-17T00:07:22.076Z,1020.20
2018-02-17T00:08:22.047Z,1020.24
2018-02-17T00:09:21.968Z,1020.25
2018-02-17T00:10:21.934Z,1020.24
2018-02-17T00:11:21.883Z,1020.24
2018-02-17T00:12:21.844Z,1020.26
2018-02-17T00:13:21.793Z,1020.25
2018-02-17T00:14:21.786Z,1020.28
2018-02-17T00:15:21.718Z,1020.27
2018-02-17T00:16:21.655Z,1020.26
2018-02-17T00:17:21.607Z,1020.26
2018-02-17T00:18:21.567Z,1020.25
2018-02-17T00:19:21.529Z,1020.21
2018-02-17T00:20:21.504Z,1020.22
2018-02-17T00:21:21.433Z,1020.21
2018-02-17T00:22:21.379Z,1020.20
2018-02-17T00:23:21.338Z,1020.15
2018-02-17T00:24:21.297Z,1020.10
2018-02-17T00:25:21.259Z,1020.10
2018-02-17T00:26:21.237Z,1020.07
2018-02-17T00:27:21.162Z,1019.98
2018-02-17T00:28:21.113Z,1019.99
2018-02-17T00:29:21.068Z,1019.97
2018-02-17T00:30:21.016Z,1019.92
2018-02-17T00:31:20.994Z,1019.90
2018-02-17T00:32:20.933Z,1019.84
2018-02-17T00:33:20.891Z,1019.84
2018-02-17T00:34:20.841Z,1019.85
2018-02-17T00:35:20.799Z,1019.83
2018-02-17T00:36:20.768Z,1019.83
2018-02-17T00:37:20.704Z,1019.79
2018-02-17T00:38:20.661Z,1019.74
2018-02-17T00:39:20.607Z,1019.75
2018-02-17T00:40:20.589Z,1019.71
2018-02-17T00:41:20.553Z,1019.68
2018-02-17T00:42:20.514Z,1019.67
2018-02-17T00:43:20.428Z,1019.63
2018-02-17T00:44:20.382Z,1019.62
2018-02-17T00:45:20.343Z,1019.61
2018-02-17T00:46:20.293Z,1019.57
2018-02-17T00:47:20.266Z,1019.59
2018-02-17T00:48:20.222Z,1019.57
2018-02-17T00:49:20.165Z,1019.57
2018-02-17T00:50:20.107Z,1019.56
2018-02-17T00:51:20.062Z,1019.53
2018-02-17T00:52:20.046Z,1019.54
2018-02-17T00:53:19.973Z,1019.57
2018-02-17T00:54:19.934Z,1019.56
2018-02-17T00:55:19.888Z,1019.53
2018-02-17T00:56:19.839Z,1019.51
2018-02-17T00:57:19.791Z,1019.52
2018-02-17T00:58:19.777Z,1019.51
2018-02-17T00:59:19.700Z,1019.52
2018-02-17T01:00:19.659Z,1019.49
2018-02-17T01:01:19.611Z,1019.50
2018-02-17T01:02:19.588Z,1019.49
2018-02-17T01:03:19.521Z,1019.48
2018-02-17T01:04:19.506Z,1019.48
2018-02-17T01:05:19.428Z,1019.44
2018-02-17T01:06:19.384Z,1019.40
2018-02-17T01:07:19.339Z,1019.37
2018-02-17T01:08:19.285Z,1019.36
2018-02-17T01:09:19.244Z,1019.29
2018-02-17T01:10:19.228Z,1019.32
2018-02-17T01:11:19.149Z,1019.30
2018-02-17T01:12:19.107Z,1019.32
2018-02-17T01:13:19.065Z,1019.31
2018-02-17T01:14:19.020Z,1019.28
2018-02-17T01:15:18.970Z,1019.33
2018-02-17T01:16:18.948Z,1019.26
2018-02-17T01:17:18.885Z,1019.20
2018-02-17T01:18:18.843Z,1019.24
2018-02-17T01:19:18.785Z,1019.19
2018-02-17T01:20:18.749Z,1019.18
2018-02-17T01:21:18.702Z,1019.16
2018-02-17T01:22:18.683Z,1019.14
2018-02-17T01:23:18.613Z,1019.13
2018-02-17T01:24:18.561Z,1019.09
2018-02-17T01:25:18.512Z,1019.05
2018-02-17T01:26:18.468Z,1019.08
2018-02-17T01:27:18.425Z,1019.02
2018-02-17T01:28:18.421Z,1019.03
2018-02-17T01:29:18.340Z,1019.03
2018-02-17T01:30:18.294Z,1019.05
2018-02-17T01:31:18.249Z,1019.04
2018-02-17T01:32:18.204Z,1019.04
2018-02-17T01:33:18.152Z,1019.04
2018-02-17T01:34:18.134Z,1019.08
2018-02-17T01:35:18.061Z,1019.06
2018-02-17T01:36:18.020Z,1019.07
2018-02-17T01:37:17.984Z,1019.02
2018-02-17T01:38:17.933Z,1019.04
2018-02-17T01:39:17.915Z,1019.00
2018-02-17T01:40:17.840Z,1019.01
2018-02-17T01:41:17.794Z,1019.03
2018-02-17T01:42:17.749Z,1019.06
2018-02-17T01:43:17.702Z,1018.99
2018-02-17T01:44:17.662Z,1018.99
2018-02-17T01:45:17.639Z,1018.98
2018-02-17T01:46:17.570Z,1019.02
2018-02-17T01:47:17.530Z,1018.99
2018-02-17T01:48:17.488Z,1018.96
2018-02-17T01:49:17.435Z,1018.95
2018-02-17T01:50:17.390Z,1018.97
2018-02-17T01:51:17.377Z,1018.94
2018-02-17T01:52:17.303Z,1018.96
2018-02-17T01:53:17.264Z,1018.95
2018-02-17T01:54:17.213Z,1018.97
2018-02-17T01:55:17.162Z,1018.96
2018-02-17T01:56:17.121Z,1019.00
2018-02-17T01:57:17.111Z,1018.98
2018-02-17T01:58:17.036Z,1019.03
2018-02-17T01:59:16.993Z,1019.05
2018-02-17T02:00:16.947Z,1019.10
2018-02-17T02:01:16.895Z,1019.07
2018-02-17T02:02:16.857Z,1019.07
2018-02-17T02:03:16.843Z,1019.13
2018-02-17T02:04:16.768Z,1019.18
2018-02-17T02:05:16.717Z,1019.12
2018-02-17T02:06:16.679Z,1019.13
2018-02-17T02:07:16.638Z,1019.10
2018-02-17T02:08:16.582Z,1019.10
2018-02-17T02:09:16.561Z,1019.09
2018-02-17T02:10:16.488Z,1019.08
2018-02-17T02:11:16.454Z,1019.07
2018-02-17T02:12:16.414Z,1019.10
2018-02-17T02:13:16.365Z,1019.07
2018-02-17T02:14:16.311Z,1019.15
2018-02-17T02:15:16.302Z,1019.13
2018-02-17T02:16:16.226Z,1019.12
2018-02-17T02:17:16.187Z,1019.13
2018-02-17T02:18:16.135Z,1019.15
2018-02-17T02:19:16.098Z,1019.14
2018-02-17T02:20:16.044Z,1019.14
2018-02-17T02:21:16.034Z,1019.06
2018-02-17T02:22:15.955Z,1019.05
2018-02-17T02:23:15.918Z,1019.04
2018-02-17T02:24:15.870Z,1019.05
2018-02-17T02:25:15.828Z,1019.04
2018-02-17T02:26:15.775Z,1018.98
2018-02-17T02:27:15.758Z,1018.97
2018-02-17T02:28:15.694Z,1018.93
2018-02-17T02:29:15.647Z,1018.93
2018-02-17T02:30:15.601Z,1018.91
2018-02-17T02:31:15.560Z,1018.90
2018-02-17T02:32:15.507Z,1018.90
2018-02-17T02:33:15.496Z,1018.88
2018-02-17T02:34:15.429Z,1018.84
2018-02-17T02:35:15.382Z,1018.87
2018-02-17T02:36:15.345Z,1018.86
2018-02-17T02:37:15.303Z,1018.87
2018-02-17T02:38:15.279Z,1018.87
2018-02-17T02:39:15.222Z,1018.93
2018-02-17T02:40:15.152Z,1018.92
2018-02-17T02:41:15.115Z,1018.91
2018-02-17T02:42:15.071Z,1018.93
2018-02-17T02:43:15.017Z,1018.94
2018-02-17T02:44:14.979Z,1018.97
2018-02-17T02:45:14.963Z,1018.95
2018-02-17T02:46:14.892Z,1018.97
2018-02-17T02:47:14.834Z,1018.99
2018-02-17T02:48:14.801Z,1019.01
2018-02-17T02:49:14.761Z,1018.99
2018-02-17T02:50:14.708Z,1018.96
2018-02-17T02:51:14.696Z,1018.95
2018-02-17T02:52:14.617Z,1018.91
2018-02-17T02:53:14.568Z,1018.93
2018-02-17T02:54:14.528Z,1018.90
2018-02-17T02:55:14.489Z,1018.90
2018-02-17T02:56:14.448Z,1018.96
2018-02-17T02:57:14.427Z,1018.92
2018-02-17T02:58:14.351Z,1018.88
2018-02-17T02:59:14.301Z,1018.87
2018-02-17T03:00:14.264Z,1018.86
2018-02-17T03:01:14.224Z,1018.74
2018-02-17T03:02:14.183Z,1018.78
2018-02-17T03:03:14.160Z,1018.72
2018-02-17T03:04:14.091Z,1018.70
2018-02-17T03:05:14.032Z,1018.67
2018-02-17T03:06:14.005Z,1018.64
2018-02-17T03:07:13.954Z,1018.69
2018-02-17T03:08:13.938Z,1018.65
2018-02-17T03:09:13.888Z,1018.66
2018-02-17T03:10:13.810Z,1018.67
2018-02-17T03:11:13.764Z,1018.65
2018-02-17T03:12:13.718Z,1018.66
2018-02-17T03:13:13.678Z,1018.62
2018-02-17T03:14:13.636Z,1018.65
2018-02-17T03:15:13.612Z,1018.65
2018-02-17T03:16:13.545Z,1018.63
2018-02-17T03:17:13.500Z,1018.62
2018-02-17T03:18:13.456Z,1018.57
2018-02-17T03:19:13.402Z,1018.57
2018-02-17T03:20:13.362Z,1018.55
2018-02-17T03:21:13.344Z,1018.54
2018-02-17T03:22:13.271Z,1018.55
2018-02-17T03:23:13.226Z,1018.54
2018-02-17T03:24:13.182Z,1018.49
2018-02-17T03:25:13.131Z,1018.46
2018-02-17T03:26:13.091Z,1018.46
2018-02-17T03:27:13.076Z,1018.44
2018-02-17T03:28:13.003Z,1018.42
2018-02-17T03:29:12.963Z,1018.43
2018-02-17T03:30:12.930Z,1018.40
2018-02-17T03:31:12.862Z,1018.38
2018-02-17T03:32:12.817Z,1018.36
2018-02-17T03:33:12.801Z,1018.39
2018-02-17T03:34:12.729Z,1018.36
2018-02-17T03:35:12.685Z,1018.38
2018-02-17T03:36:12.638Z,1018.34
2018-02-17T03:37:12.594Z,1018.35
2018-02-17T03:38:12.541Z,1018.37
2018-02-17T03:39:12.531Z,1018.31
2018-02-17T03:40:12.454Z,1018.30
2018-02-17T03:41:12.418Z,1018.27
2018-02-17T03:42:12.364Z,1018.25
2018-02-17T03:43:12.326Z,1018.23
2018-02-17T03:44:12.302Z,1018.20
2018-02-17T03:45:12.239Z,1018.20
2018-02-17T03:46:12.188Z,1018.19
2018-02-17T03:47:12.147Z,1018.19
2018-02-17T03:48:12.096Z,1018.15
2018-02-17T03:49:12.071Z,1018.13
2018-02-17T03:50:12.001Z,1018.16
2018-02-17T03:51:11.953Z,1018.20
2018-02-17T03:52:11.910Z,1018.22
2018-02-17T03:53:11.870Z,1018.24
2018-02-17T03:54:11.826Z,1018.24
2018-02-17T03:55:11.794Z,1018.26
2018-02-17T03:56:11.725Z,1018.24
2018-02-17T03:57:11.690Z,1018.21
2018-02-17T03:58:11.646Z,1018.16
2018-02-17T03:59:11.590Z,1018.10
2018-02-17T04:00:11.570Z,1018.02
2018-02-17T04:01:11.494Z,1017.97
2018-02-17T04:02:11.460Z,1017.92
2018-02-17T04:03:11.414Z,1017.93
2018-02-17T04:04:11.372Z,1017.99
2018-02-17T04:05:11.353Z,1017.94
2018-02-17T04:06:11.277Z,1017.99
2018-02-17T04:07:11.223Z,1017.99
2018-02-17T04:08:11.185Z,1017.98
2018-02-17T04:09:11.139Z,1017.94
2018-02-17T04:10:11.103Z,1017.95
2018-02-17T04:11:11.083Z,1017.95
2018-02-17T04:12:10.998Z,1017.94
2018-02-17T04:13:10.955Z,1017.93
2018-02-17T04:14:10.911Z,1017.94
2018-02-17T04:15:10.862Z,1017.95
2018-02-17T04:16:10.822Z,1017.96
2018-02-17T04:17:10.804Z,1017.92
2018-02-17T04:18:10.745Z,1017.91
2018-02-17T04:19:10.689Z,1017.93
2018-02-17T04:20:10.633Z,1017.95
2018-02-17T04:21:10.600Z,1017.99
2018-02-17T04:22:10.543Z,1017.95
2018-02-17T04:23:10.528Z,1017.97
2018-02-17T04:24:10.470Z,1018.03
2018-02-17T04:25:10.419Z,1018.02
2018-02-17T04:26:10.377Z,1017.99
2018-02-17T04:27:10.325Z,1018.02
2018-02-17T04:28:10.281Z,1018.02
2018-02-17T04:29:10.253Z,1017.97
2018-02-17T04:30:10.189Z,1017.94
2018-02-17T04:31:10.147Z,1017.96
2018-02-17T04:32:10.096Z,1017.95
2018-02-17T04:33:10.059Z,1017.95
2018-02-17T04:34:10.040Z,1017.94
2018-02-17T04:35:09.974Z,1017.93
2018-02-17T04:36:09.913Z,1017.91
2018-02-17T04:37:09.879Z,1017.89
2018-02-17T04:38:09.823Z,1017.91
2018-02-17T04:39:09.782Z,1017.87
2018-02-17T04:40:09.774Z,1017.92
2018-02-17T04:41:09.699Z,1017.91
2018-02-17T04:42:09.657Z,1017.84
2018-02-17T04:43:09.613Z,1017.83
2018-02-17T04:44:09.557Z,1017.81
2018-02-17T04:45:09.514Z,1017.73
2018-02-17T04:46:09.492Z,1017.77
2018-02-17T04:47:09.427Z,1017.70
2018-02-17T04:48:09.389Z,1017.60
2018-02-17T04:49:09.335Z,1017.62
2018-02-17T04:50:09.299Z,1017.56
2018-02-17T04:51:09.273Z,1017.53
2018-02-17T04:52:09.209Z,1017.55
2018-02-17T04:53:09.157Z,1017.53
2018-02-17T04:54:09.116Z,1017.51
2018-02-17T04:55:09.068Z,1017.53
2018-02-17T04:56:09.047Z,1017.56
2018-02-17T04:57:08.982Z,1017.52
2018-02-17T04:58:08.932Z,1017.52
2018-02-17T04:59:08.885Z,1017.51
2018-02-17T05:00:08.851Z,1017.55
2018-02-17T05:01:08.806Z,1017.54
2018-02-17T05:02:08.785Z,1017.59
2018-02-17T05:03:08.714Z,1017.57
2018-02-17T05:04:08.671Z,1017.59
2018-02-17T05:05:08.621Z,1017.56
2018-02-17T05:06:08.581Z,1017.55
2018-02-17T05:07:08.541Z,1017.52
2018-02-17T05:08:08.514Z,1017.46
2018-02-17T05:09:08.443Z,1017.47
2018-02-17T05:10:08.397Z,1017.42
2018-02-17T05:11:08.351Z,1017.38
2018-02-17T05:12:08.311Z,1017.33
2018-02-17T05:13:08.267Z,1017.29
2018-02-17T05:14:08.249Z,1017.28
2018-02-17T05:15:08.180Z,1017.24
2018-02-17T05:16:08.127Z,1017.27
2018-02-17T05:17:08.088Z,1017.26
2018-02-17T05:18:08.039Z,1017.24
2018-02-17T05:19:07.997Z,1017.26
2018-02-17T05:20:07.985Z,1017.25
2018-02-17T05:21:07.907Z,1017.27
2018-02-17T05:22:07.860Z,1017.26
2018-02-17T05:23:07.823Z,1017.27
2018-02-17T05:24:07.776Z,1017.31
2018-02-17T05:25:07.728Z,1017.25
2018-02-17T05:26:07.708Z,1017.26
2018-02-17T05:27:07.642Z,1017.25
2018-02-17T05:28:07.594Z,1017.23
2018-02-17T05:29:07.557Z,1017.28
2018-02-17T05:30:07.504Z,1017.24
2018-02-17T05:31:07.459Z,1017.26
2018-02-17T05:32:07.441Z,1017.27
2018-02-17T05:33:07.375Z,1017.24
2018-02-17T05:34:07.335Z,1017.25
2018-02-17T05:35:07.290Z,1017.29
2018-02-17T05:36:07.236Z,1017.29
2018-02-17T05:37:07.190Z,1017.30
2018-02-17T05:38:07.182Z,1017.28
2018-02-17T05:39:07.105Z,1017.29
2018-02-17T05:40:07.063Z,1017.29
2018-02-17T05:41:07.022Z,1017.28
2018-02-17T05:42:06.974Z,1017.29
2018-02-17T05:43:06.927Z,1017.33
2018-02-17T05:44:06.912Z,1017.30
2018-02-17T05:45:06.842Z,1017.33
2018-02-17T05:46:06.790Z,1017.33
2018-02-17T05:47:06.748Z,1017.35
2018-02-17T05:48:06.704Z,1017.38
2018-02-17T05:49:06.658Z,1017.35
2018-02-17T05:50:06.654Z,1017.42
2018-02-17T05:51:06.574Z,1017.38
2018-02-17T05:52:06.530Z,1017.35
2018-02-17T05:53:06.480Z,1017.34
2018-02-17T05:54:06.436Z,1017.36
2018-02-17T05:55:06.399Z,1017.40
2018-02-17T05:56:06.382Z,1017.38
2018-02-17T05:57:06.303Z,1017.36
2018-02-17T05:58:06.259Z,1017.36
2018-02-17T05:59:06.221Z,1017.37
2018-02-17T06:00:06.170Z,1017.35
2018-02-17T06:01:06.139Z,1017.33
2018-02-17T06:02:06.117Z,1017.32
2018-02-17T06:03:06.042Z,1017.31
2018-02-17T06:04:05.997Z,1017.28
2018-02-17T06:05:05.954Z,1017.31
2018-02-17T06:06:05.905Z,1017.30
2018-02-17T06:07:05.863Z,1017.31
2018-02-17T06:08:05.846Z,1017.25
2018-02-17T06:09:05.767Z,1017.28
2018-02-17T06:10:05.727Z,1017.22
2018-02-17T06:11:05.684Z,1017.22
2018-02-17T06:12:05.641Z,1017.22
2018-02-17T06:13:05.596Z,1017.19
2018-02-17T06:14:05.573Z,1017.20
2018-02-17T06:15:05.507Z,1017.17
2018-02-17T06:16:05.461Z,1017.20
2018-02-17T06:17:05.420Z,1017.16
2018-02-17T06:18:05.368Z,1017.13
2018-02-17T06:19:05.326Z,1017.15
2018-02-17T06:20:05.310Z,1017.14
2018-02-17T06:21:05.235Z,1017.14
2018-02-17T06:22:05.195Z,1017.10
2018-02-17T06:23:05.152Z,1017.08
2018-02-17T06:24:05.099Z,1016.97
2018-02-17T06:25:05.097Z,1016.94
2018-02-17T06:26:05.037Z,1016.87
2018-02-17T06:27:04.974Z,1016.84
2018-02-17T06:28:04.920Z,1016.85
2018-02-17T06:29:04.883Z,1016.80
2018-02-17T06:30:04.833Z,1016.81
2018-02-17T06:31:04.796Z,1016.75
2018-02-17T06:32:04.783Z,1016.72
2018-02-17T06:33:04.700Z,1016.69
2018-02-17T06:34:04.654Z,1016.70
2018-02-17T06:35:04.616Z,1016.71
2018-02-17T06:36:04.575Z,1016.72
2018-02-17T06:37:04.523Z,1016.69
2018-02-17T06:38:04.511Z,1016.73
2018-02-17T06:39:04.439Z,1016.74
2018-02-17T06:40:04.417Z,1016.78
2018-02-17T06:41:04.348Z,1016.75
2018-02-17T06:42:04.297Z,1016.73
2018-02-17T06:43:04.253Z,1016.74
2018-02-17T06:44:04.242Z,1016.74
2018-02-17T06:45:04.165Z,1016.70
2018-02-17T06:46:04.125Z,1016.70
2018-02-17T06:47:04.087Z,1016.71
2018-02-17T06:48:04.037Z,1016.71
2018-02-17T06:49:03.991Z,1016.69
2018-02-17T06:50:03.981Z,1016.68
2018-02-17T06:51:03.895Z,1016.69
2018-02-17T06:52:03.853Z,1016.67
2018-02-17T06:53:03.809Z,1016.69
2018-02-17T06:54:03.773Z,1016.69
2018-02-17T06:55:03.723Z,1016.67
2018-02-17T06:56:03.713Z,1016.68
2018-02-17T06:57:03.631Z,1016.69
2018-02-17T06:58:03.582Z,1016.71
2018-02-17T06:59:03.552Z,1016.67
2018-02-17T07:00:03.506Z,1016.69
2018-02-17T07:01:03.455Z,1016.70
2018-02-17T07:02:03.440Z,1016.67
2018-02-17T07:03:03.371Z,1016.69
2018-02-17T07:04:03.319Z,1016.67
2018-02-17T07:05:03.285Z,1016.66
2018-02-17T07:06:03.238Z,1016.69
2018-02-17T07:07:03.188Z,1016.72
2018-02-17T07:08:03.182Z,1016.70
2018-02-17T07:09:03.106Z,1016.73
2018-02-17T07:10:03.060Z,1016.76
2018-02-17T07:11:03.012Z,1016.78
2018-02-17T07:12:02.967Z,1016.75
2018-02-17T07:13:02.920Z,1016.73
2018-02-17T07:14:02.908Z,1016.71
2018-02-17T07:15:02.840Z,1016.71
2018-02-17T07:16:02.796Z,1016.68
2018-02-17T07:17:02.750Z,1016.63
2018-02-17T07:18:02.699Z,1016.68
2018-02-17T07:19:02.656Z,1016.68
2018-02-17T07:20:02.646Z,1016.68
2018-02-17T07:21:02.572Z,1016.67
2018-02-17T07:22:02.529Z,1016.67
2018-02-17T07:23:02.476Z,1016.69
2018-02-17T07:24:02.441Z,1016.64
2018-02-17T07:25:02.388Z,1016.63
2018-02-17T07:26:02.375Z,1016.64
2018-02-17T07:27:02.300Z,1016.61
2018-02-17T07:28:02.258Z,1016.65
2018-02-17T07:29:02.220Z,1016.68
2018-02-17T07:30:02.169Z,1016.71
2018-02-17T07:31:02.156Z,1016.67
2018-02-17T07:32:02.096Z,1016.61
2018-02-17T07:33:02.044Z,1016.63
2018-02-17T07:34:02.001Z,1016.63
2018-02-17T07:35:01.975Z,1016.61
2018-02-17T07:36:01.909Z,1016.63
2018-02-17T07:37:01.892Z,1016.57
2018-02-17T07:38:01.821Z,1016.56
2018-02-17T07:39:01.784Z,1016.53
2018-02-17T07:40:01.735Z,1016.55
2018-02-17T07:41:01.692Z,1016.55
2018-02-17T07:42:01.644Z,1016.55
2018-02-17T07:43:01.625Z,1016.64
2018-02-17T07:44:01.559Z,1016.67
2018-02-17T07:45:01.512Z,1016.64
2018-02-17T07:46:01.467Z,1016.64
2018-02-17T07:47:01.423Z,1016.65
2018-02-17T07:48:01.384Z,1016.63
2018-02-17T07:49:01.364Z,1016.65
2018-02-17T07:50:01.289Z,1016.62
2018-02-17T07:51:01.242Z,1016.64
2018-02-17T07:52:01.208Z,1016.62
2018-02-17T07:53:01.155Z,1016.66
2018-02-17T07:54:01.117Z,1016.61
2018-02-17T07:55:01.101Z,1016.61
2018-02-17T07:56:01.032Z,1016.60
2018-02-17T07:57:00.986Z,1016.61
2018-02-17T07:58:00.934Z,1016.63
2018-02-17T07:59:00.887Z,1016.62
2018-02-17T08:00:00.849Z,1016.61
2018-02-17T08:01:00.837Z,1016.66
2018-02-17T08:02:00.765Z,1016.65
2018-02-17T08:03:00.715Z,1016.63
2018-02-17T08:04:00.679Z,1016.66
2018-02-17T08:05:00.642Z,1016.63
2018-02-17T08:06:00.590Z,1016.67
2018-02-17T08:07:00.569Z,1016.71
2018-02-17T08:08:00.504Z,1016.76
2018-02-17T08:09:00.451Z,1016.70
2018-02-17T08:10:00.414Z,1016.78
2018-02-17T08:11:00.370Z,1016.76
2018-02-17T08:12:00.353Z,1016.73
2018-02-17T08:13:00.286Z,1016.75
2018-02-17T08:14:00.239Z,1016.77
2018-02-17T08:15:00.196Z,1016.79
2018-02-17T08:16:00.153Z,1016.76
2018-02-17T08:17:00.137Z,1016.78
2018-02-17T08:18:00.064Z,1016.76
2018-02-17T08:19:00.025Z,1016.74
2018-02-17T08:19:59.971Z,1016.75
2018-02-17T08:20:59.933Z,1016.75
2018-02-17T08:21:59.883Z,1016.76
2018-02-17T08:22:59.874Z,1016.77
2018-02-17T08:23:59.794Z,1016.81
2018-02-17T08:24:59.764Z,1016.76
2018-02-17T08:25:59.723Z,1016.77
2018-02-17T08:26:59.678Z,1016.76
2018-02-17T08:27:59.635Z,1016.80
2018-02-17T08:28:59.621Z,1016.81
2018-02-17T08:29:59.539Z,1016.76
2018-02-17T08:30:59.500Z,1016.78
2018-02-17T08:31:59.455Z,1016.77
2018-02-17T08:32:59.416Z,1016.81
2018-02-17T08:33:59.368Z,1016.80
2018-02-17T08:34:59.346Z,1016.82
2018-02-17T08:35:59.283Z,1016.81
2018-02-17T08:36:59.245Z,1016.79
2018-02-17T08:37:59.200Z,1016.78
2018-02-17T08:38:59.150Z,1016.81
2018-02-17T08:39:59.133Z,1016.82
2018-02-17T08:40:59.071Z,1016.83
2018-02-17T08:41:59.021Z,1016.87
2018-02-17T08:42:58.985Z,1016.87
2018-02-17T08:43:58.939Z,1016.87
2018-02-17T08:44:58.902Z,1016.83
2018-02-17T08:45:58.877Z,1016.85
2018-02-17T08:46:58.813Z,1016.83
2018-02-17T08:47:58.766Z,1016.83
2018-02-17T08:48:58.726Z,1016.85
2018-02-17T08:49:58.689Z,1016.78
2018-02-17T08:50:58.672Z,1016.86
2018-02-17T08:51:58.605Z,1016.83
2018-02-17T08:52:58.563Z,1016.84
2018-02-17T08:53:58.508Z,1016.81
2018-02-17T08:54:58.470Z,1016.79
2018-02-17T08:55:58.421Z,1016.80
2018-02-17T08:56:58.403Z,1016.74
2018-02-17T08:57:58.378Z,1016.74
2018-02-17T08:58:58.313Z,1016.77
2018-02-17T08:59:58.267Z,1016.76
2018-02-17T09:00:58.224Z,1016.75
2018-02-17T09:01:58.198Z,1016.73
2018-02-17T09:02:58.138Z,1016.72
2018-02-17T09:03:58.087Z,1016.75
2018-02-17T09:04:58.052Z,1016.74
2018-02-17T09:05:58.022Z,1016.73
2018-02-17T09:06:57.998Z,1016.72
2018-02-17T09:07:57.923Z,1016.70
2018-02-17T09:08:57.885Z,1016.68
2018-02-17T09:09:57.837Z,1016.66
2018-02-17T09:10:57.799Z,1016.66
2018-02-17T09:11:57.761Z,1016.64
2018-02-17T09:12:57.736Z,1016.65
2018-02-17T09:13:57.680Z,1016.65
2018-02-17T09:14:57.628Z,1016.67
2018-02-17T09:15:57.592Z,1016.66
2018-02-17T09:16:57.550Z,1016.64
2018-02-17T09:17:57.539Z,1016.67
2018-02-17T09:18:57.491Z,1016.63
2018-02-17T09:19:57.430Z,1016.67
2018-02-17T09:20:57.385Z,1016.70
2018-02-17T09:21:57.354Z,1016.72
2018-02-17T09:22:57.305Z,1016.75
2018-02-17T09:23:57.281Z,1016.75
2018-02-17T09:24:57.216Z,1016.76
2018-02-17T09:25:57.170Z,1016.72
2018-02-17T09:26:57.139Z,1016.70
2018-02-17T09:27:57.096Z,1016.73
2018-02-17T09:28:57.058Z,1016.76
2018-02-17T09:29:57.037Z,1016.76
2018-02-17T09:30:56.974Z,1016.77
2018-02-17T09:31:56.926Z,1016.81
2018-02-17T09:32:56.887Z,1016.82
2018-02-17T09:33:56.843Z,1016.81
2018-02-17T09:34:56.855Z,1016.81
2018-02-17T09:35:56.767Z,1016.81
2018-02-17T09:36:56.718Z,1016.78
2018-02-17T09:37:56.681Z,1016.82
2018-02-17T09:38:56.638Z,1016.84
2018-02-17T09:39:56.606Z,1016.85
2018-02-17T09:40:56.576Z,1016.88
2018-02-17T09:41:56.515Z,1016.90
2018-02-17T09:42:56.470Z,1016.93
2018-02-17T09:43:56.442Z,1016.94
2018-02-17T09:44:56.388Z,1016.89
2018-02-17T09:45:56.378Z,1016.94
2018-02-17T09:46:56.311Z,1016.93
2018-02-17T09:47:56.274Z,1016.95
2018-02-17T09:48:56.227Z,1016.93
2018-02-17T09:49:56.186Z,1016.96
2018-02-17T09:50:56.179Z,1016.95
2018-02-17T09:51:56.108Z,1016.95
2018-02-17T09:52:56.071Z,1016.95
2018-02-17T09:53:56.031Z,1016.95
2018-02-17T09:54:55.985Z,1016.92
2018-02-17T09:55:55.950Z,1016.91
2018-02-17T09:56:55.936Z,1016.93
2018-02-17T09:57:55.863Z,1016.91
2018-02-17T09:58:55.826Z,1016.92
2018-02-17T09:59:55.783Z,1016.95
2018-02-17T10:00:55.755Z,1016.93
2018-02-17T10:01:55.697Z,1016.93
2018-02-17T10:02:55.695Z,1016.91
2018-02-17T10:03:55.658Z,1016.93
2018-02-17T10:04:55.588Z,1016.91
2018-02-17T10:05:55.540Z,1016.96
2018-02-17T10:06:55.511Z,1017.01
2018-02-17T10:07:55.467Z,1017.00
2018-02-17T10:08:55.454Z,1017.02
2018-02-17T10:09:55.382Z,1017.00
2018-02-17T10:10:55.341Z,1016.97
2018-02-17T10:11:55.315Z,1016.96
2018-02-17T10:12:55.259Z,1016.99
2018-02-17T10:13:55.228Z,1016.99
2018-02-17T10:14:55.212Z,1017.05
2018-02-17T10:15:55.140Z,1017.10
2018-02-17T10:16:55.107Z,1017.12
2018-02-17T10:17:55.073Z,1017.16
2018-02-17T10:18:55.024Z,1017.18
2018-02-17T10:19:55.015Z,1017.21
2018-02-17T10:20:54.953Z,1017.14
2018-02-17T10:21:54.910Z,1017.23
2018-02-17T10:22:54.876Z,1017.24
2018-02-17T10:23:54.830Z,1017.26
2018-02-17T10:24:54.790Z,1017.27
2018-02-17T10:25:54.773Z,1017.33
2018-02-17T10:26:54.707Z,1017.31
2018-02-17T10:27:54.673Z,1017.36
2018-02-17T10:28:54.630Z,1017.35
2018-02-17T10:29:54.621Z,1017.39
2018-02-17T10:30:54.561Z,1017.37
2018-02-17T10:31:54.553Z,1017.39
2018-02-17T10:32:54.483Z,1017.35
2018-02-17T10:33:54.438Z,1017.34
2018-02-17T10:34:54.408Z,1017.40
2018-02-17T10:35:54.363Z,1017.40
2018-02-17T10:36:54.320Z,1017.38
2018-02-17T10:37:54.314Z,1017.35
2018-02-17T10:38:54.249Z,1017.37
2018-02-17T10:39:54.201Z,1017.35
2018-02-17T10:40:54.177Z,1017.33
2018-02-17T10:41:54.124Z,1017.37
2018-02-17T10:42:54.086Z,1017.40
2018-02-17T10:43:54.077Z,1017.43
2018-02-17T10:44:54.018Z,1017.43
2018-02-17T10:45:53.975Z,1017.48
2018-02-17T10:46:53.936Z,1017.52
2018-02-17T10:47:53.898Z,1017.57
2018-02-17T10:48:53.850Z,1017.60
2018-02-17T10:49:53.850Z,1017.55
2018-02-17T10:50:53.780Z,1017.57
2018-02-17T10:51:53.743Z,1017.45
2018-02-17T10:52:53.710Z,1017.49
2018-02-17T10:53:53.659Z,1017.40
2018-02-17T10:54:53.622Z,1017.36
2018-02-17T10:55:53.604Z,1017.27
2018-02-17T10:56:53.542Z,1017.29
2018-02-17T10:57:53.507Z,1017.25
2018-02-17T10:58:53.465Z,1017.24
2018-02-17T10:59:53.431Z,1017.22
2018-02-17T11:00:53.425Z,1017.28
2018-02-17T11:01:53.365Z,1017.23
2018-02-17T11:02:53.314Z,1017.24
2018-02-17T11:03:53.279Z,1017.22
2018-02-17T11:04:53.241Z,1017.28
2018-02-17T11:05:53.203Z,1017.35
2018-02-17T11:06:53.188Z,1017.42
2018-02-17T11:07:53.130Z,1017.36
2018-02-17T11:08:53.084Z,1017.37
2018-02-17T11:09:53.046Z,1017.36
2018-02-17T11:10:53.016Z,1017.40
2018-02-17T11:11:52.974Z,1017.45
2018-02-17T11:12:52.956Z,1017.58
2018-02-17T11:13:52.893Z,1017.59
2018-02-17T11:14:52.849Z,1017.56
2018-02-17T11:15:52.823Z,1017.50
2018-02-17T11:16:52.776Z,1017.52
2018-02-17T11:17:52.748Z,1017.56
2018-02-17T11:18:52.729Z,1017.53
2018-02-17T11:19:52.677Z,1017.56
2018-02-17T11:20:52.624Z,1017.39
2018-02-17T11:21:52.599Z,1017.47
2018-02-17T11:22:52.549Z,1017.59
2018-02-17T11:23:52.524Z,1017.65
2018-02-17T11:24:52.501Z,1017.63
2018-02-17T11:25:52.446Z,1017.61
2018-02-17T11:26:52.408Z,1017.50
2018-02-17T11:27:52.366Z,1017.43
2018-02-17T11:28:52.327Z,1017.57
2018-02-17T11:29:52.288Z,1017.66
2018-02-17T11:30:52.288Z,1017.60
2018-02-17T11:31:52.218Z,1017.49
2018-02-17T11:32:52.182Z,1017.38
2018-02-17T11:33:52.141Z,1017.43
2018-02-17T11:34:52.107Z,1017.39
2018-02-17T11:35:52.091Z,1017.23
2018-02-17T11:36:52.086Z,1017.28
2018-02-17T11:37:51.992Z,1017.28
2018-02-17T11:38:51.952Z,1017.28
2018-02-17T11:39:51.922Z,1017.63
2018-02-17T11:40:51.894Z,1017.70
2018-02-17T11:41:51.955Z,1017.72
2018-02-17T11:42:51.849Z,1017.71
2018-02-17T11:43:51.770Z,1017.72
2018-02-17T11:44:51.746Z,1017.59
2018-02-17T11:45:51.702Z,1017.62
2018-02-17T11:46:51.665Z,1017.71
2018-02-17T11:47:51.641Z,1017.77
2018-02-17T11:48:51.623Z,1017.65
2018-02-17T11:49:51.561Z,1017.61
2018-02-17T11:50:51.520Z,1017.61
2018-02-17T11:51:51.482Z,1017.67
2018-02-17T11:52:51.456Z,1017.71
2018-02-17T11:53:51.406Z,1017.70
2018-02-17T11:54:51.400Z,1017.67
2018-02-17T11:55:51.337Z,1017.70
2018-02-17T11:56:51.313Z,1017.50
2018-02-17T11:57:51.261Z,1017.48
2018-02-17T11:58:51.235Z,1017.46
2018-02-17T11:59:51.220Z,1017.31
2018-02-17T12:00:51.163Z,1017.32
2018-02-17T12:01:51.128Z,1017.22
2018-02-17T12:02:51.092Z,1017.13
2018-02-17T12:03:51.054Z,1017.13
2018-02-17T12:04:51.048Z,1017.15